KFHR/FHR METAR and TAF weather

Enter ICAO airport designator
Station Type Date Time Source
KFHR METAR 2019/10/23 20:48 UTC NOAA

KFHR 232048Z AUTO 01003KT 10SM BKN023 12/07 A3052 RMK AO2


Station Type Date Time Source
KFHR Decoded METAR 2019/10/23 20:48 UTC NOAA

FRIDAY HARBOR AIRPORT, WA, United States (KFHR) 48-31N 123-02W 32M
Oct 23, 2019 - 04:48 PM EDT / 2019.10.23 2048 UTC
Wind: from the N (010 degrees) at 3 MPH (3 KT):0
Visibility: 10 mile(s):0
Sky conditions: mostly cloudy
Temperature: 53 F (12 C)
Dew Point: 44 F (7 C)
Relative Humidity: 71%
Pressure (altimeter): 30.52 in. Hg (1033 hPa)
ob: KFHR 232048Z AUTO 01003KT 10SM BKN023 12/07 A3052 RMK AO2
cycle: 21

Station Type Date Time Source
KFHR TAF UTC NOAA

Error!

Example: see airport list